createdAt,value
2023-05-06T00:00:44.207Z,67.37
2023-05-06T00:03:16.185Z,67.44
2023-05-06T00:05:46.354Z,67.54
2023-05-06T00:08:16.378Z,67.24
2023-05-06T00:10:45.918Z,67.33
2023-05-06T00:13:16.282Z,67.61
2023-05-06T00:15:45.696Z,67.53
2023-05-06T00:18:15.534Z,67.58
2023-05-06T00:20:45.496Z,67.40
2023-05-06T00:23:14.814Z,67.83
2023-05-06T00:25:44.134Z,67.90
2023-05-06T00:28:13.622Z,68.12
2023-05-06T00:30:43.105Z,68.30
2023-05-06T00:33:12.437Z,68.31
2023-05-06T00:35:43.529Z,68.31
2023-05-06T00:38:15.583Z,68.62
2023-05-06T00:40:46.319Z,68.51
2023-05-06T00:43:15.627Z,68.18
2023-05-06T00:45:45.522Z,68.60
2023-05-06T00:48:16.876Z,68.34
2023-05-06T00:50:46.622Z,68.62
2023-05-06T00:53:20.275Z,68.79
2023-05-06T00:55:51.386Z,68.84
2023-05-06T00:58:26.671Z,69.04
2023-05-06T01:01:00.919Z,69.47
2023-05-06T01:03:31.924Z,69.44
2023-05-06T01:06:36.141Z,69.09
2023-05-06T01:09:25.492Z,69.65
2023-05-06T01:12:17.296Z,69.56
2023-05-06T01:14:54.484Z,69.63
2023-05-06T01:17:28.475Z,69.54
2023-05-06T01:20:01.907Z,69.48
2023-05-06T01:22:32.240Z,69.74
2023-05-06T01:25:01.861Z,69.59
2023-05-06T01:27:31.456Z,69.70
2023-05-06T01:30:03.305Z,70.00
2023-05-06T01:33:11.883Z,70.29
2023-05-06T01:36:14.120Z,70.23
2023-05-06T01:38:53.255Z,70.09
2023-05-06T01:41:25.655Z,70.13
2023-05-06T01:43:56.781Z,70.06
2023-05-06T01:46:27.180Z,70.02
2023-05-06T01:48:58.976Z,70.27
2023-05-06T01:51:28.667Z,70.39
2023-05-06T01:53:58.406Z,70.26
2023-05-06T01:56:30.437Z,70.35
2023-05-06T01:59:00.091Z,70.67
2023-05-06T02:01:29.737Z,70.78
2023-05-06T02:04:00.105Z,70.74
2023-05-06T02:06:30.324Z,70.74
2023-05-06T02:08:59.816Z,70.75
2023-05-06T02:11:29.827Z,71.05
2023-05-06T02:14:04.988Z,70.99
2023-05-06T02:16:36.178Z,71.08
2023-05-06T02:19:07.268Z,71.50
2023-05-06T02:21:36.988Z,71.10
2023-05-06T02:24:09.250Z,71.02
2023-05-06T02:26:39.473Z,71.06
2023-05-06T02:29:09.930Z,71.26
2023-05-06T02:31:39.928Z,71.56
2023-05-06T02:34:09.505Z,71.29
2023-05-06T02:36:39.594Z,71.32
2023-05-06T02:39:09.608Z,71.90
2023-05-06T02:41:38.995Z,72.22
2023-05-06T02:44:11.511Z,72.29
2023-05-06T02:46:44.126Z,72.11
2023-05-06T02:49:15.026Z,72.19
2023-05-06T02:51:46.211Z,72.71
2023-05-06T02:54:16.037Z,72.63
2023-05-06T02:56:49.008Z,72.47
2023-05-06T02:59:19.858Z,72.76
2023-05-06T03:01:49.545Z,72.93
2023-05-06T03:04:19.608Z,72.97
2023-05-06T03:06:49.272Z,72.60
2023-05-06T03:09:18.556Z,72.36
2023-05-06T03:11:48.504Z,72.65
2023-05-06T03:14:19.126Z,72.92
2023-05-06T03:16:48.550Z,72.86
2023-05-06T03:19:18.554Z,73.12
2023-05-06T03:21:49.727Z,72.94
2023-05-06T03:24:20.635Z,72.83
2023-05-06T03:26:53.821Z,73.01
2023-05-06T03:29:24.137Z,72.93
2023-05-06T03:31:57.254Z,72.69
2023-05-06T03:34:29.071Z,72.84
2023-05-06T03:36:59.344Z,72.62
2023-05-06T03:39:31.201Z,72.83
2023-05-06T03:42:02.453Z,72.63
2023-05-06T03:44:31.957Z,72.52
2023-05-06T03:47:01.793Z,72.36
2023-05-06T03:49:31.518Z,72.05
2023-05-06T03:52:00.987Z,72.13
2023-05-06T03:54:31.353Z,72.19
2023-05-06T03:57:02.653Z,72.29
2023-05-06T03:59:33.083Z,72.02
2023-05-06T04:02:03.962Z,72.24
2023-05-06T04:04:35.162Z,71.99
2023-05-06T04:07:06.000Z,72.16
2023-05-06T04:09:36.003Z,71.89
2023-05-06T04:12:11.385Z,71.77
2023-05-06T04:14:41.950Z,71.65
2023-05-06T04:17:12.497Z,71.66
2023-05-06T04:19:47.422Z,71.52
2023-05-06T04:22:16.741Z,71.31
2023-05-06T04:24:48.920Z,70.99
2023-05-06T04:27:30.092Z,70.69
2023-05-06T04:30:01.861Z,70.52
2023-05-06T04:32:36.677Z,70.24
2023-05-06T04:35:11.084Z,69.76
2023-05-06T04:37:44.614Z,69.57
2023-05-06T04:40:23.770Z,69.41
2023-05-06T04:42:54.405Z,69.32
2023-05-06T04:45:26.487Z,68.86
2023-05-06T04:47:56.800Z,68.49
2023-05-06T04:50:28.254Z,68.24
2023-05-06T04:53:02.189Z,67.83
2023-05-06T04:55:34.840Z,67.63
2023-05-06T04:58:04.782Z,67.55
2023-05-06T05:00:38.224Z,67.32
2023-05-06T05:03:11.782Z,66.84
2023-05-06T05:05:41.670Z,66.66
2023-05-06T05:08:17.999Z,66.80
2023-05-06T05:10:54.824Z,66.48
2023-05-06T05:13:25.844Z,66.27
2023-05-06T05:15:57.251Z,65.90
2023-05-06T05:18:36.049Z,65.39
2023-05-06T05:21:11.112Z,64.97
2023-05-06T05:23:40.558Z,65.04
2023-05-06T05:26:10.411Z,64.16
2023-05-06T05:28:40.688Z,63.50
2023-05-06T05:31:10.681Z,63.05
2023-05-06T05:33:41.274Z,62.98
2023-05-06T05:36:15.500Z,62.26
2023-05-06T05:38:48.128Z,61.86
2023-05-06T05:41:22.403Z,61.44
2023-05-06T05:43:52.926Z,61.56
2023-05-06T05:46:22.819Z,61.26
2023-05-06T05:48:53.092Z,60.47
2023-05-06T05:51:25.035Z,60.40
2023-05-06T05:53:55.238Z,60.45
2023-05-06T05:56:26.940Z,59.81
2023-05-06T05:58:57.145Z,59.38
2023-05-06T06:01:27.561Z,59.56
2023-05-06T06:03:59.613Z,59.34
2023-05-06T06:06:31.757Z,58.82
2023-05-06T06:09:01.370Z,58.55
2023-05-06T06:11:31.362Z,57.62
2023-05-06T06:14:01.155Z,57.79
2023-05-06T06:16:32.920Z,57.49
2023-05-06T06:19:02.691Z,57.10
2023-05-06T06:21:33.409Z,56.68
2023-05-06T06:24:04.186Z,56.62
2023-05-06T06:26:33.887Z,56.33
2023-05-06T06:29:04.118Z,56.18
2023-05-06T06:31:35.055Z,55.89
2023-05-06T06:34:06.607Z,55.71
2023-05-06T06:36:36.104Z,55.80
2023-05-06T06:39:05.971Z,55.71
2023-05-06T06:41:35.535Z,54.90
2023-05-06T06:44:06.557Z,54.75
2023-05-06T06:46:36.008Z,54.75
2023-05-06T06:49:05.341Z,54.11
2023-05-06T06:51:34.881Z,54.06
2023-05-06T06:54:04.922Z,53.58
2023-05-06T06:56:35.222Z,53.15
2023-05-06T06:59:04.689Z,53.68
2023-05-06T07:01:34.727Z,53.23
2023-05-06T07:04:07.107Z,53.06
2023-05-06T07:06:37.322Z,52.95
2023-05-06T07:09:09.941Z,52.66
2023-05-06T07:11:41.111Z,52.17
2023-05-06T07:14:12.269Z,51.01
2023-05-06T07:16:44.628Z,50.98
2023-05-06T07:19:16.217Z,50.95
2023-05-06T07:21:45.686Z,50.64
2023-05-06T07:24:15.640Z,50.69
2023-05-06T07:26:55.707Z,49.78
2023-05-06T07:29:25.466Z,49.26
2023-05-06T07:31:55.016Z,49.34
2023-05-06T07:34:24.521Z,49.70
2023-05-06T07:36:53.978Z,49.57
2023-05-06T07:39:23.512Z,48.69
2023-05-06T07:41:52.770Z,48.31
2023-05-06T07:44:22.233Z,47.95
2023-05-06T07:46:52.497Z,47.52
2023-05-06T07:49:22.309Z,47.62
2023-05-06T07:51:51.701Z,47.66
2023-05-06T07:54:21.059Z,47.41
2023-05-06T07:56:50.970Z,47.10
2023-05-06T07:59:20.401Z,47.39
2023-05-06T08:01:49.938Z,46.84
2023-05-06T08:04:19.578Z,45.80
2023-05-06T08:06:52.426Z,45.28
2023-05-06T08:09:23.244Z,44.73
2023-05-06T08:11:53.835Z,44.61
2023-05-06T08:14:23.336Z,44.04
2023-05-06T08:16:53.328Z,43.76
2023-05-06T08:19:23.499Z,42.54
2023-05-06T08:21:53.413Z,42.37
2023-05-06T08:24:24.356Z,42.73
2023-05-06T08:26:54.116Z,42.52
2023-05-06T08:29:24.788Z,41.90
2023-05-06T08:31:54.499Z,41.12
2023-05-06T08:34:24.565Z,41.11
2023-05-06T08:36:54.137Z,40.83
2023-05-06T08:39:28.700Z,40.88
2023-05-06T08:42:03.950Z,40.52
2023-05-06T08:44:34.458Z,40.97
2023-05-06T08:47:04.454Z,40.94
2023-05-06T08:49:34.111Z,40.45
2023-05-06T08:52:06.650Z,40.23
2023-05-06T08:54:36.858Z,40.08
2023-05-06T08:57:15.026Z,39.39
2023-05-06T08:59:45.298Z,39.17
2023-05-06T09:02:15.488Z,39.02
2023-05-06T09:04:45.591Z,39.26
2023-05-06T09:07:15.490Z,38.95
2023-05-06T09:09:45.110Z,38.62
2023-05-06T09:12:15.544Z,37.76
2023-05-06T09:14:45.978Z,38.15
2023-05-06T09:17:28.310Z,38.13
2023-05-06T09:19:59.691Z,37.29
2023-05-06T09:22:32.711Z,37.11
2023-05-06T09:25:05.983Z,37.12
2023-05-06T09:27:37.025Z,36.45
2023-05-06T09:30:16.392Z,36.47
2023-05-06T09:32:50.017Z,36.61
2023-05-06T09:35:19.411Z,36.26
2023-05-06T09:37:49.360Z,36.27
2023-05-06T09:40:24.904Z,35.61
2023-05-06T09:42:54.473Z,35.47
2023-05-06T09:45:24.605Z,35.55
2023-05-06T09:47:55.036Z,35.86
2023-05-06T09:50:26.029Z,35.67
2023-05-06T09:52:56.794Z,35.77
2023-05-06T09:55:27.837Z,35.19
2023-05-06T09:58:00.946Z,35.70
2023-05-06T10:00:31.823Z,35.20
2023-05-06T10:03:02.591Z,34.80
2023-05-06T10:05:36.648Z,35.73
2023-05-06T10:08:08.215Z,35.81
2023-05-06T10:10:42.187Z,34.97
2023-05-06T10:13:16.729Z,35.29
2023-05-06T10:15:48.644Z,35.82
2023-05-06T10:18:21.335Z,36.14
2023-05-06T10:20:53.871Z,35.51
2023-05-06T10:24:10.557Z,35.45
2023-05-06T10:26:42.721Z,35.74
2023-05-06T10:29:13.265Z,35.67
2023-05-06T10:31:58.585Z,35.42
2023-05-06T10:34:38.467Z,34.72
2023-05-06T10:37:10.419Z,34.87
2023-05-06T10:39:48.833Z,34.86
2023-05-06T10:42:21.135Z,35.92
2023-05-06T10:45:08.682Z,36.23
2023-05-06T10:47:56.515Z,36.05
2023-05-06T10:53:14.849Z,35.23
2023-05-06T10:55:44.902Z,34.98
2023-05-06T10:58:19.085Z,34.12
2023-05-06T11:00:58.375Z,33.78
2023-05-06T11:03:27.789Z,33.31
2023-05-06T11:05:58.030Z,32.47
2023-05-06T11:08:27.544Z,31.99
2023-05-06T11:10:57.497Z,31.99
2023-05-06T11:13:30.478Z,32.41
2023-05-06T11:16:00.507Z,32.78
2023-05-06T11:18:32.385Z,33.25
2023-05-06T11:21:03.941Z,33.06
2023-05-06T11:23:42.655Z,32.80
2023-05-06T11:26:14.479Z,31.92
2023-05-06T11:28:47.170Z,31.78
2023-05-06T11:31:17.348Z,31.54
2023-05-06T11:33:49.434Z,31.96
2023-05-06T11:36:51.468Z,32.50
2023-05-06T11:39:50.213Z,32.57
2023-05-06T11:42:28.950Z,31.66
2023-05-06T11:45:02.536Z,32.64
2023-05-06T11:47:32.277Z,31.83
2023-05-06T11:50:07.533Z,31.07
2023-05-06T11:52:38.528Z,30.90
2023-05-06T11:55:11.312Z,30.59
2023-05-06T11:57:45.660Z,29.83
2023-05-06T12:00:16.060Z,29.89
2023-05-06T12:02:45.667Z,30.58
2023-05-06T12:05:15.436Z,30.78
2023-05-06T12:07:46.403Z,31.15
2023-05-06T12:10:19.173Z,31.79
2023-05-06T12:12:49.449Z,31.97
2023-05-06T12:15:19.003Z,32.40
2023-05-06T12:17:49.147Z,32.98
2023-05-06T12:20:19.034Z,32.36
2023-05-06T12:23:11.906Z,32.01
2023-05-06T12:25:43.243Z,32.40
2023-05-06T12:28:24.426Z,31.81
2023-05-06T12:31:02.267Z,31.15
2023-05-06T12:33:46.640Z,30.44
2023-05-06T12:36:16.655Z,30.35
2023-05-06T12:38:56.460Z,30.13
2023-05-06T12:41:46.644Z,31.00
2023-05-06T12:44:37.101Z,30.68
2023-05-06T12:47:09.657Z,29.48
2023-05-06T12:49:58.516Z,29.74
2023-05-06T12:52:30.289Z,29.37
2023-05-06T12:55:02.681Z,30.06
2023-05-06T12:57:32.206Z,29.79
2023-05-06T13:00:01.586Z,29.97
2023-05-06T13:02:31.731Z,30.71
2023-05-06T13:05:02.285Z,31.48
2023-05-06T13:07:32.140Z,30.60
2023-05-06T13:10:03.108Z,30.20
2023-05-06T13:12:35.951Z,30.14
2023-05-06T13:15:05.906Z,29.79
2023-05-06T13:17:35.895Z,28.76
2023-05-06T13:20:09.922Z,28.83
2023-05-06T13:22:53.335Z,29.09
2023-05-06T13:26:04.210Z,29.45
2023-05-06T13:28:36.942Z,30.53
2023-05-06T13:31:06.561Z,31.68
2023-05-06T13:33:37.062Z,32.65
2023-05-06T13:36:07.113Z,33.59
2023-05-06T13:38:36.789Z,33.26
2023-05-06T13:41:08.882Z,32.50
2023-05-06T13:43:40.202Z,31.97
2023-05-06T13:46:10.038Z,32.55
2023-05-06T13:48:39.986Z,33.48
2023-05-06T13:51:09.461Z,34.16
2023-05-06T13:53:39.622Z,33.83
2023-05-06T13:56:08.978Z,34.09
2023-05-06T13:58:39.671Z,35.13
2023-05-06T14:01:09.110Z,35.61
2023-05-06T14:03:43.216Z,34.62
2023-05-06T14:06:12.481Z,32.78
2023-05-06T14:08:42.064Z,32.62
2023-05-06T14:11:11.914Z,32.37
2023-05-06T14:13:41.393Z,32.23
2023-05-06T14:16:11.008Z,32.32
2023-05-06T14:18:40.650Z,32.59
2023-05-06T14:21:12.981Z,32.37
2023-05-06T14:23:43.142Z,31.25
2023-05-06T14:26:14.440Z,29.98
2023-05-06T14:28:43.882Z,30.56
2023-05-06T14:31:13.396Z,31.58
2023-05-06T14:33:56.678Z,31.72
2023-05-06T14:37:16.823Z,32.04
2023-05-06T14:39:46.747Z,31.39
2023-05-06T14:42:16.766Z,30.88
2023-05-06T14:44:50.708Z,30.75
2023-05-06T14:47:20.210Z,29.85
2023-05-06T14:49:49.709Z,30.06
2023-05-06T14:52:19.178Z,29.98
2023-05-06T14:54:48.492Z,30.09
2023-05-06T14:57:19.668Z,29.57
2023-05-06T14:59:54.843Z,29.67
2023-05-06T15:02:24.680Z,28.82
2023-05-06T15:04:54.081Z,28.70
2023-05-06T15:07:23.613Z,29.12
2023-05-06T15:09:53.330Z,28.61
2023-05-06T15:12:26.288Z,27.62
2023-05-06T15:14:55.824Z,28.50
2023-05-06T15:17:25.094Z,29.19
2023-05-06T15:19:55.117Z,29.28
2023-05-06T15:22:27.301Z,29.27
2023-05-06T15:25:00.675Z,30.04
2023-05-06T15:27:30.947Z,30.49
2023-05-06T15:30:04.721Z,31.07
2023-05-06T15:32:37.383Z,31.55
2023-05-06T15:35:08.982Z,31.71
2023-05-06T15:37:40.302Z,32.35
2023-05-06T15:40:16.094Z,33.36
2023-05-06T15:42:45.549Z,34.19
2023-05-06T15:45:15.524Z,35.30
2023-05-06T15:47:48.600Z,36.05
2023-05-06T15:50:32.485Z,36.54
2023-05-06T15:53:03.565Z,37.41
2023-05-06T15:55:46.482Z,38.13
2023-05-06T15:58:19.316Z,38.76
2023-05-06T16:00:49.073Z,38.80
2023-05-06T16:03:21.747Z,39.25
2023-05-06T16:05:56.593Z,39.62
2023-05-06T16:08:26.552Z,40.35
2023-05-06T16:10:56.229Z,40.39
2023-05-06T16:13:26.532Z,40.68
2023-05-06T16:15:56.157Z,41.03
2023-05-06T16:18:28.464Z,42.79
2023-05-06T16:21:04.858Z,43.66
2023-05-06T16:23:34.502Z,44.41
2023-05-06T16:26:05.785Z,45.29
2023-05-06T16:28:37.383Z,45.67
2023-05-06T16:31:08.254Z,46.03
2023-05-06T16:33:38.150Z,46.45
2023-05-06T16:36:08.739Z,46.59
2023-05-06T16:38:38.416Z,46.72
2023-05-06T16:41:08.403Z,46.87
2023-05-06T16:43:37.869Z,46.85
2023-05-06T16:46:07.561Z,46.90
2023-05-06T16:48:37.200Z,46.91
2023-05-06T16:51:06.925Z,47.20
2023-05-06T16:53:36.817Z,47.52
2023-05-06T16:56:07.410Z,47.54
2023-05-06T16:58:37.324Z,48.06
2023-05-06T17:01:09.985Z,48.26
2023-05-06T17:03:40.477Z,48.56
2023-05-06T17:06:10.206Z,48.75
2023-05-06T17:08:42.402Z,48.96
2023-05-06T17:11:12.036Z,49.33
2023-05-06T17:13:41.365Z,49.25
2023-05-06T17:16:13.405Z,49.76
2023-05-06T17:18:42.703Z,50.03
2023-05-06T17:21:12.027Z,50.09
2023-05-06T17:23:41.543Z,50.21
2023-05-06T17:26:10.998Z,50.83
2023-05-06T17:28:40.535Z,50.72
2023-05-06T17:31:09.905Z,50.80
2023-05-06T17:33:39.144Z,51.09
2023-05-06T17:36:08.639Z,51.22
2023-05-06T17:38:38.456Z,51.44
2023-05-06T17:41:07.945Z,51.88
2023-05-06T17:43:37.324Z,51.51
2023-05-06T17:46:08.287Z,51.52
2023-05-06T17:48:37.742Z,51.73
2023-05-06T17:51:07.172Z,51.64
2023-05-06T17:53:37.668Z,51.81
2023-05-06T17:56:12.121Z,51.85
2023-05-06T17:58:41.520Z,51.95
2023-05-06T18:01:11.884Z,52.37
2023-05-06T18:03:41.359Z,52.22
2023-05-06T18:06:12.662Z,52.49
2023-05-06T18:08:42.000Z,52.24
2023-05-06T18:11:11.652Z,52.59
2023-05-06T18:13:41.008Z,52.60
2023-05-06T18:16:10.620Z,52.94
2023-05-06T18:18:39.995Z,53.21
2023-05-06T18:21:10.699Z,53.44
2023-05-06T18:23:40.202Z,53.44
2023-05-06T18:26:10.950Z,53.42
2023-05-06T18:28:43.918Z,53.23
2023-05-06T18:31:13.955Z,53.24
2023-05-06T18:33:43.381Z,53.19
2023-05-06T18:36:13.606Z,52.87
2023-05-06T18:38:43.064Z,52.79
2023-05-06T18:41:12.483Z,52.49
2023-05-06T18:43:41.896Z,53.03
2023-05-06T18:46:11.896Z,53.14
2023-05-06T18:48:41.496Z,53.43
2023-05-06T18:51:17.490Z,53.27
2023-05-06T18:53:47.057Z,53.32
2023-05-06T18:56:17.170Z,53.72
2023-05-06T18:58:46.469Z,53.34
2023-05-06T19:01:16.151Z,53.48
2023-05-06T19:03:45.649Z,53.41
2023-05-06T19:06:15.817Z,53.74
2023-05-06T19:08:45.456Z,53.74
2023-05-06T19:11:18.478Z,53.85
2023-05-06T19:13:47.819Z,53.61
2023-05-06T19:16:17.365Z,53.53
2023-05-06T19:18:48.382Z,53.51
2023-05-06T19:21:19.115Z,53.31
2023-05-06T19:23:48.483Z,53.16
2023-05-06T19:26:18.020Z,52.92
2023-05-06T19:28:47.352Z,52.91
2023-05-06T19:31:16.948Z,52.76
2023-05-06T19:33:46.314Z,52.62
2023-05-06T19:36:16.694Z,52.54
2023-05-06T19:38:46.486Z,52.54
2023-05-06T19:41:16.851Z,52.19
2023-05-06T19:43:46.493Z,52.24
2023-05-06T19:46:16.358Z,52.28
2023-05-06T19:48:46.523Z,52.02
2023-05-06T19:51:16.590Z,52.52
2023-05-06T19:53:46.049Z,52.61
2023-05-06T19:56:17.329Z,52.67
2023-05-06T19:58:46.791Z,52.59
2023-05-06T20:01:17.343Z,52.63
2023-05-06T20:03:47.434Z,52.98
2023-05-06T20:06:17.287Z,53.08
2023-05-06T20:08:46.773Z,53.14
2023-05-06T20:11:16.976Z,53.37
2023-05-06T20:13:46.348Z,53.82
2023-05-06T20:16:16.259Z,53.80
2023-05-06T20:18:47.845Z,54.03
2023-05-06T20:21:17.234Z,54.09
2023-05-06T20:23:46.567Z,54.41
2023-05-06T20:26:15.957Z,54.56
2023-05-06T20:28:45.391Z,54.74
2023-05-06T20:31:14.896Z,55.05
2023-05-06T20:33:45.398Z,55.15
2023-05-06T20:36:15.982Z,55.41
2023-05-06T20:38:46.375Z,55.05
2023-05-06T20:41:16.394Z,55.43
2023-05-06T20:43:46.542Z,55.87
2023-05-06T20:46:17.399Z,56.28
2023-05-06T20:48:47.003Z,56.17
2023-05-06T20:51:16.370Z,56.22
2023-05-06T20:53:48.422Z,56.45
2023-05-06T20:56:24.964Z,56.30
2023-05-06T20:58:56.244Z,56.44
2023-05-06T21:01:27.328Z,56.67
2023-05-06T21:03:58.952Z,56.99
2023-05-06T21:06:28.449Z,56.86
2023-05-06T21:08:58.165Z,57.49
2023-05-06T21:11:28.989Z,57.40
2023-05-06T21:13:58.611Z,57.09
2023-05-06T21:16:28.020Z,57.44
2023-05-06T21:18:57.544Z,57.36
2023-05-06T21:21:30.833Z,57.98
2023-05-06T21:24:01.214Z,58.01
2023-05-06T21:26:32.774Z,57.85
2023-05-06T21:29:02.289Z,58.50
2023-05-06T21:31:31.689Z,58.99
2023-05-06T21:34:02.054Z,58.94
2023-05-06T21:36:31.547Z,59.42
2023-05-06T21:39:13.512Z,59.37
2023-05-06T21:41:42.847Z,59.39
2023-05-06T21:44:12.371Z,59.79
2023-05-06T21:46:41.852Z,60.00
2023-05-06T21:49:11.350Z,60.49
2023-05-06T21:51:40.620Z,60.46
2023-05-06T21:54:10.082Z,60.77
2023-05-06T21:56:39.757Z,60.86
2023-05-06T21:59:09.035Z,61.04
2023-05-06T22:01:39.012Z,61.08
2023-05-06T22:04:13.024Z,61.50
2023-05-06T22:06:43.036Z,61.91
2023-05-06T22:09:12.502Z,62.23
2023-05-06T22:11:42.746Z,62.12
2023-05-06T22:14:12.169Z,62.48
2023-05-06T22:16:41.737Z,62.48
2023-05-06T22:19:11.375Z,63.45
2023-05-06T22:21:41.542Z,63.50
2023-05-06T22:24:11.002Z,63.29
2023-05-06T22:26:42.572Z,63.15
2023-05-06T22:29:13.394Z,63.59
2023-05-06T22:31:45.345Z,63.66
2023-05-06T22:34:16.061Z,63.87
2023-05-06T22:36:45.721Z,63.99
2023-05-06T22:39:15.108Z,63.44
2023-05-06T22:41:44.850Z,63.83
2023-05-06T22:44:14.353Z,63.84
2023-05-06T22:46:43.859Z,63.88
2023-05-06T22:49:14.011Z,64.03
2023-05-06T22:51:45.504Z,64.27
2023-05-06T22:54:14.863Z,64.42
2023-05-06T22:56:45.234Z,64.61
2023-05-06T22:59:14.523Z,64.79
2023-05-06T23:01:44.049Z,64.77
2023-05-06T23:04:13.421Z,65.37
2023-05-06T23:06:44.574Z,65.48
2023-05-06T23:09:14.019Z,65.85
2023-05-06T23:11:46.460Z,66.00
2023-05-06T23:14:17.484Z,65.98
2023-05-06T23:16:46.977Z,65.99
2023-05-06T23:19:17.210Z,65.65
2023-05-06T23:21:47.012Z,65.32
2023-05-06T23:24:16.341Z,65.85
2023-05-06T23:26:45.912Z,65.70
2023-05-06T23:29:15.211Z,65.72
2023-05-06T23:31:44.814Z,65.37
2023-05-06T23:34:16.772Z,65.24
2023-05-06T23:36:49.489Z,65.91
2023-05-06T23:39:21.635Z,66.24
2023-05-06T23:41:51.316Z,66.30
2023-05-06T23:44:21.135Z,66.52
2023-05-06T23:46:50.665Z,66.59
2023-05-06T23:49:20.641Z,66.81
2023-05-06T23:51:50.135Z,66.67
2023-05-06T23:54:19.555Z,67.02
2023-05-06T23:56:49.308Z,67.01
2023-05-06T23:59:18.702Z,67.25
